Terminal Aerodrome Forecast
Issued by NWS

Home | Current Version | Previous Version | Text Only | Print | Product List | Glossary On
Versions: 1 2 3 4 5 6 7 8 9 10 11 12 13 14 15 16 17 18
000
FTUS46 KLOX 241747 CCA
TAFPMD
TAF COR
KPMD 241747Z 2418/2518 21012KT 6SM FU SCT060
     FM242100 23020G30KT 6SM FU BKN120
     FM250300 23015KT 6SM FU BKN120
     FM250800 22009KT 6SM HZ SKC
     FM251700 23015KT P6SM SKC=

USA.gov is the U.S. government's official web portal to all federal, state and local government web resources and services.